Time;durP1;ratioP1;P1;durP2;ratioP2;P2;SDS_P1;SDS_P2;PMS_P1;PMS_P2;Temp;Humidity;BMP_temperature;BMP_pressure;BME280_temperature;BME280_humidity;BME280_pressure;Samples;Min_cycle;Max_cycle;Signal;HPM_P1;HPM_P2
2023/06/27 00:01:04;;;;;;;9.90;4.60;;;;;;;-128.00;-1.00;-1.00;18873;294;7504238;-36
2023/06/27 00:03:36;;;;;;;12.90;3.60;;;;;;;-128.00;-1.00;-1.00;18504;294;7506213;-36
2023/06/27 00:06:04;;;;;;;4.80;4.20;;;;;;;-128.00;-1.00;-1.00;18501;294;7504196;-35
2023/06/27 00:08:33;;;;;;;9.50;4.20;;;;;;;-128.00;-1.00;-1.00;18484;293;7505956;-34
2023/06/27 00:10:59;;;;;;;16.80;6.10;;;;;;;-128.00;-1.00;-1.00;18490;294;7505043;-37
2023/06/27 00:13:24;;;;;;;5.10;4.10;;;;;;;-128.00;-1.00;-1.00;18516;334;7504858;-38
2023/06/27 00:15:52;;;;;;;4.00;3.40;;;;;;;-128.00;-1.00;-1.00;18479;346;7504405;-38
2023/06/27 00:18:21;;;;;;;3.40;3.10;;;;;;;-128.00;-1.00;-1.00;18496;294;7506702;-36
2023/06/27 00:20:48;;;;;;;5.50;4.90;;;;;;;-128.00;-1.00;-1.00;18498;346;7504213;-38
2023/06/27 00:23:20;;;;;;;4.60;3.90;;;;;;;-128.00;-1.00;-1.00;18474;294;7506643;-37
2023/06/27 00:25:46;;;;;;;4.90;4.40;;;;;;;-128.00;-1.00;-1.00;18479;294;7506126;-38
2023/06/27 00:28:12;;;;;;;5.20;4.80;;;;;;;-128.00;-1.00;-1.00;18482;293;7505122;-38
2023/06/27 00:30:38;;;;;;;4.20;3.80;;;;;;;-128.00;-1.00;-1.00;18467;294;7504714;-35
2023/06/27 00:33:03;;;;;;;3.50;3.20;;;;;;;-128.00;-1.00;-1.00;18484;294;7504285;-36
2023/06/27 00:35:32;;;;;;;6.40;5.80;;;;;;;-128.00;-1.00;-1.00;18513;294;7504791;-35
2023/06/27 01:17:38;;;;;;;10.30;5.60;;;;;;;-99.09;19.20;19789.21;19599;294;8046479;-36
2023/06/27 01:20:05;;;;;;;10.60;8.20;;;;;;;-128.00;-1.00;-1.00;18577;295;7504950;-37
2023/06/27 01:22:33;;;;;;;7.40;6.10;;;;;;;-128.00;-1.00;-1.00;18497;346;7506097;-37
2023/06/27 01:25:02;;;;;;;9.20;6.30;;;;;;;-128.00;-1.00;-1.00;18498;286;7506035;-35
2023/06/27 01:27:28;;;;;;;5.30;4.80;;;;;;;-128.00;-1.00;-1.00;18484;286;7504525;-35
2023/06/27 01:29:55;;;;;;;6.70;5.70;;;;;;;-128.00;-1.00;-1.00;18479;294;7504930;-37
2023/06/27 01:32:32;;;;;;;6.60;5.40;;;;;;;-128.00;-1.00;-1.00;18483;293;7505968;-37
2023/06/27 01:35:28;;;;;;;4.80;4.30;;;;;;;-128.00;-1.00;-1.00;18502;293;7504287;-37
2023/06/27 01:37:55;;;;;;;4.30;3.50;;;;;;;-128.00;-1.00;-1.00;18513;293;7506227;-35
2023/06/27 01:40:21;;;;;;;5.80;5.30;;;;;;;-128.00;-1.00;-1.00;18477;294;7506081;-36
2023/06/27 01:42:49;;;;;;;7.00;4.50;;;;;;;-128.00;-1.00;-1.00;18482;293;7506190;-35
2023/06/27 01:45:17;;;;;;;7.40;6.70;;;;;;;-128.00;-1.00;-1.00;18482;317;7507562;-37
2023/06/27 01:47:43;;;;;;;5.50;3.70;;;;;;;-128.00;-1.00;-1.00;18489;293;7505626;-35
2023/06/27 01:50:09;;;;;;;6.50;5.70;;;;;;;-128.00;-1.00;-1.00;18439;335;7505053;-34
2023/06/27 01:52:34;;;;;;;8.00;5.90;;;;;;;-128.00;-1.00;-1.00;18464;294;7504382;-34
2023/06/27 01:55:01;;;;;;;6.80;6.10;;;;;;;-128.00;-1.00;-1.00;18872;293;7504805;-37
2023/06/27 01:57:27;;;;;;;8.10;5.40;;;;;;;-128.00;-1.00;-1.00;18874;293;7505006;-37
2023/06/27 01:59:54;;;;;;;9.30;5.30;;;;;;;-128.00;-1.00;-1.00;18880;293;7504869;-37
2023/06/27 02:02:20;;;;;;;6.80;5.70;;;;;;;-128.00;-1.00;-1.00;18938;321;7506423;-34
2023/06/27 02:04:46;;;;;;;3.40;2.60;;;;;;;-128.00;-1.00;-1.00;18896;293;7504338;-35
2023/06/27 02:07:12;;;;;;;6.30;4.60;;;;;;;-128.00;-1.00;-1.00;18881;293;7505226;-34
2023/06/27 02:09:39;;;;;;;7.60;5.80;;;;;;;-128.00;-1.00;-1.00;18899;293;7504943;-36
2023/06/27 02:12:06;;;;;;;7.60;6.10;;;;;;;-128.00;-1.00;-1.00;18902;294;7504436;-34
2023/06/27 02:14:31;;;;;;;7.80;6.90;;;;;;;-128.00;-1.00;-1.00;18510;286;7505697;-34
2023/06/27 02:16:57;;;;;;;11.10;5.00;;;;;;;-128.00;-1.00;-1.00;18869;293;7505155;-35
2023/06/27 02:19:24;;;;;;;6.50;5.60;;;;;;;-128.00;-1.00;-1.00;18877;293;7504358;-34
2023/06/27 02:21:50;;;;;;;6.50;4.20;;;;;;;-128.00;-1.00;-1.00;18902;294;7505040;-35
2023/06/27 02:24:16;;;;;;;5.20;4.20;;;;;;;-128.00;-1.00;-1.00;18902;293;7504107;-34
2023/06/27 02:26:43;;;;;;;4.90;4.30;;;;;;;-128.00;-1.00;-1.00;18518;293;7505297;-37
2023/06/27 02:29:09;;;;;;;5.80;5.30;;;;;;;-128.00;-1.00;-1.00;18484;293;7504896;-34
2023/06/27 02:31:35;;;;;;;4.90;4.40;;;;;;;-128.00;-1.00;-1.00;18496;294;7505422;-34
2023/06/27 02:34:01;;;;;;;5.90;5.10;;;;;;;-128.00;-1.00;-1.00;18548;294;7505973;-37
2023/06/27 02:36:27;;;;;;;3.30;1.80;;;;;;;-128.00;-1.00;-1.00;18498;346;7504405;-33
2023/06/27 02:38:54;;;;;;;15.20;7.50;;;;;;;-128.00;-1.00;-1.00;18496;342;7505895;-33
2023/06/27 02:41:24;;;;;;;16.60;6.20;;;;;;;-128.00;-1.00;-1.00;18481;346;7504739;-36
2023/06/27 02:43:50;;;;;;;5.90;5.20;;;;;;;-128.00;-1.00;-1.00;18482;325;7504222;-36
2023/06/27 02:46:15;;;;;;;4.40;4.00;;;;;;;-128.00;-1.00;-1.00;18480;282;7504636;-36
2023/06/27 02:48:41;;;;;;;12.00;5.40;;;;;;;-128.00;-1.00;-1.00;18460;338;7504595;-37
2023/06/27 02:51:07;;;;;;;8.80;5.20;;;;;;;-128.00;-1.00;-1.00;18471;334;7505615;-37
2023/06/27 02:53:33;;;;;;;12.70;4.50;;;;;;;-128.00;-1.00;-1.00;18483;294;7507638;-34
2023/06/27 02:56:02;;;;;;;3.70;3.30;;;;;;;-128.00;-1.00;-1.00;18467;294;7504397;-34
2023/06/27 02:58:31;;;;;;;4.60;3.90;;;;;;;-128.00;-1.00;-1.00;18486;338;7505098;-36
2023/06/27 03:01:03;;;;;;;8.10;4.70;;;;;;;-128.00;-1.00;-1.00;18479;346;7505117;-34
2023/06/27 03:03:29;;;;;;;;;;;;;;;-128.00;-1.00;-1.00;18489;294;7504350;-34
2023/06/27 03:05:55;;;;;;;5.30;3.60;;;;;;;-128.00;-1.00;-1.00;18491;294;7506144;-34
2023/06/27 03:08:21;;;;;;;5.00;3.80;;;;;;;-128.00;-1.00;-1.00;18451;305;7506934;-37
2023/06/27 03:10:46;;;;;;;7.60;4.10;;;;;;;-128.00;-1.00;-1.00;18474;294;7505822;-34
2023/06/27 03:13:12;;;;;;;4.90;3.70;;;;;;;-128.00;-1.00;-1.00;18471;293;7504688;-36
2023/06/27 03:15:38;;;;;;;4.70;4.20;;;;;;;-128.00;-1.00;-1.00;18477;294;7504329;-36
2023/06/27 03:18:04;;;;;;;9.70;4.00;;;;;;;-128.00;-1.00;-1.00;18875;334;7505900;-32
2023/06/27 03:20:30;;;;;;;8.90;4.60;;;;;;;-128.00;-1.00;-1.00;18882;298;7505611;-33
2023/06/27 03:22:56;;;;;;;3.80;3.40;;;;;;;-128.00;-1.00;-1.00;18886;294;7505941;-35
2023/06/27 03:25:23;;;;;;;12.50;4.00;;;;;;;-128.00;-1.00;-1.00;18867;294;7504632;-33
2023/06/27 03:27:49;;;;;;;6.90;5.00;;;;;;;-128.00;-1.00;-1.00;18926;294;7504973;-33
2023/06/27 03:30:15;;;;;;;8.40;3.40;;;;;;;-128.00;-1.00;-1.00;18884;294;7504946;-33
2023/06/27 03:32:41;;;;;;;10.00;6.20;;;;;;;-128.00;-1.00;-1.00;18905;294;7504972;-36
2023/06/27 03:35:07;;;;;;;7.80;4.80;;;;;;;-128.00;-1.00;-1.00;18864;294;7504286;-37
2023/06/27 03:37:34;;;;;;;6.30;4.00;;;;;;;-128.00;-1.00;-1.00;18874;294;7504084;-36
2023/06/27 03:40:00;;;;;;;5.20;4.00;;;;;;;-128.00;-1.00;-1.00;18889;294;7505344;-32
2023/06/27 03:42:26;;;;;;;6.70;4.70;;;;;;;-128.00;-1.00;-1.00;18856;293;7504402;-36
2023/06/27 03:44:52;;;;;;;4.80;3.50;;;;;;;-128.00;-1.00;-1.00;18885;294;7504250;-35
2023/06/27 03:47:19;;;;;;;2.80;1.90;;;;;;;-128.00;-1.00;-1.00;18507;294;7504167;-36
2023/06/27 03:49:45;;;;;;;10.20;3.80;;;;;;;-128.00;-1.00;-1.00;18859;294;7505287;-36
2023/06/27 03:52:11;;;;;;;5.70;3.50;;;;;;;-128.00;-1.00;-1.00;18861;294;7506088;-32
2023/06/27 03:54:37;;;;;;;7.50;4.40;;;;;;;-128.00;-1.00;-1.00;18851;334;7505205;-32
2023/06/27 03:57:04;;;;;;;5.80;3.60;;;;;;;-128.00;-1.00;-1.00;18884;317;7505027;-33
2023/06/27 03:59:30;;;;;;;8.20;4.40;;;;;;;-128.00;-1.00;-1.00;18883;294;7505113;-32
2023/06/27 04:01:56;;;;;;;8.90;4.40;;;;;;;-128.00;-1.00;-1.00;18880;294;7504894;-36
2023/06/27 04:04:22;;;;;;;8.30;5.10;;;;;;;-128.00;-1.00;-1.00;18882;294;7504924;-37
2023/06/27 04:06:49;;;;;;;14.40;3.90;;;;;;;-128.00;-1.00;-1.00;18885;293;7505219;-33
2023/06/27 04:09:15;;;;;;;5.80;5.10;;;;;;;-128.00;-1.00;-1.00;18912;294;7505172;-34
2023/06/27 04:11:41;;;;;;;5.50;5.00;;;;;;;-128.00;-1.00;-1.00;18500;295;7505595;-38
2023/06/27 04:14:07;;;;;;;7.80;4.80;;;;;;;-128.00;-1.00;-1.00;18890;293;7504381;-39
2023/06/27 04:16:33;;;;;;;7.20;4.40;;;;;;;-128.00;-1.00;-1.00;18882;294;7505350;-37
2023/06/27 04:19:00;;;;;;;14.30;4.50;;;;;;;-128.00;-1.00;-1.00;18858;294;7504678;-37
2023/06/27 04:21:26;;;;;;;5.10;4.50;;;;;;;-128.00;-1.00;-1.00;18868;302;7504722;-37
2023/06/27 04:23:54;;;;;;;9.60;4.70;;;;;;;-128.00;-1.00;-1.00;18890;313;7504920;-37
2023/06/27 04:26:20;;;;;;;13.80;5.50;;;;;;;-128.00;-1.00;-1.00;18451;294;7504715;-37
2023/06/27 04:28:48;;;;;;;5.00;4.50;;;;;;;-128.00;-1.00;-1.00;18486;293;7504596;-34
2023/06/27 04:31:14;;;;;;;11.40;4.50;;;;;;;-128.00;-1.00;-1.00;18484;294;7506240;-37
2023/06/27 04:33:41;;;;;;;6.40;5.30;;;;;;;-128.00;-1.00;-1.00;18523;294;7506005;-34
2023/06/27 04:36:08;;;;;;;3.60;3.10;;;;;;;-128.00;-1.00;-1.00;18483;294;7504736;-34
2023/06/27 04:38:37;;;;;;;9.60;4.30;;;;;;;-128.00;-1.00;-1.00;18490;294;7505306;-37
2023/06/27 04:41:07;;;;;;;12.80;3.00;;;;;;;-128.00;-1.00;-1.00;18508;294;7505935;-34
2023/06/27 04:43:32;;;;;;;4.50;3.90;;;;;;;-128.00;-1.00;-1.00;18491;295;7504797;-35
2023/06/27 04:45:59;;;;;;;6.10;3.30;;;;;;;-128.00;-1.00;-1.00;18510;338;7507282;-37
2023/06/27 04:48:26;;;;;;;23.50;5.10;;;;;;;-128.00;-1.00;-1.00;18477;294;7506921;-33
2023/06/27 04:50:53;;;;;;;8.20;6.50;;;;;;;-128.00;-1.00;-1.00;18494;346;7506430;-34
2023/06/27 04:53:23;;;;;;;3.10;2.60;;;;;;;-128.00;-1.00;-1.00;18494;293;7504740;-34
2023/06/27 04:55:49;;;;;;;4.80;3.80;;;;;;;-128.00;-1.00;-1.00;18500;294;7506526;-37
2023/06/27 04:58:15;;;;;;;4.10;3.80;;;;;;;-128.00;-1.00;-1.00;18490;294;7504296;-34
2023/06/27 05:00:43;;;;;;;9.90;4.40;;;;;;;-128.00;-1.00;-1.00;18499;294;7504687;-36
2023/06/27 05:03:08;;;;;;;6.40;3.60;;;;;;;-128.00;-1.00;-1.00;18471;321;7504522;-34
2023/06/27 05:05:35;;;;;;;11.30;5.50;;;;;;;-128.00;-1.00;-1.00;18868;294;7504981;-32
2023/06/27 05:08:01;;;;;;;11.70;6.40;;;;;;;-128.00;-1.00;-1.00;18910;346;7505356;-32
2023/06/27 05:10:27;;;;;;;7.00;4.70;;;;;;;-128.00;-1.00;-1.00;18504;294;7506006;-34
2023/06/27 05:12:53;;;;;;;8.10;5.10;;;;;;;-128.00;-1.00;-1.00;18492;293;7504948;-32
2023/06/27 05:15:19;;;;;;;4.80;4.40;;;;;;;-128.00;-1.00;-1.00;18459;294;7504675;-36
2023/06/27 05:17:51;;;;;;;10.10;5.30;;;;;;;-128.00;-1.00;-1.00;18489;294;7506328;-37
2023/06/27 05:20:17;;;;;;;10.70;5.90;;;;;;;-128.00;-1.00;-1.00;18478;338;7504386;-34
2023/06/27 05:22:42;;;;;;;19.40;6.10;;;;;;;-128.00;-1.00;-1.00;18479;317;7504493;-32
2023/06/27 05:25:08;;;;;;;8.00;4.00;;;;;;;-128.00;-1.00;-1.00;18484;294;7504970;-32
2023/06/27 05:27:34;;;;;;;11.30;6.50;;;;;;;-128.00;-1.00;-1.00;18486;338;7504959;-33
2023/06/27 05:30:00;;;;;;;15.60;9.20;;;;;;;-128.00;-1.00;-1.00;18907;293;7504826;-37
2023/06/27 05:32:27;;;;;;;5.90;5.20;;;;;;;-128.00;-1.00;-1.00;18886;294;7504754;-33
2023/06/27 05:34:53;;;;;;;5.90;5.00;;;;;;;-128.00;-1.00;-1.00;18466;295;7504679;-37
2023/06/27 05:37:19;;;;;;;5.30;4.80;;;;;;;-128.00;-1.00;-1.00;18500;334;7504421;-36
2023/06/27 05:39:45;;;;;;;7.70;6.00;;;;;;;-128.00;-1.00;-1.00;18865;294;7507374;-37
2023/06/27 05:42:11;;;;;;;8.30;6.90;;;;;;;-128.00;-1.00;-1.00;18904;294;7505057;-33
2023/06/27 05:44:37;;;;;;;8.10;5.40;;;;;;;-128.00;-1.00;-1.00;18908;338;7505167;-33
2023/06/27 05:47:05;;;;;;;11.00;7.00;;;;;;;-128.00;-1.00;-1.00;18876;294;7504635;-33
2023/06/27 05:49:30;;;;;;;8.40;5.40;;;;;;;-128.00;-1.00;-1.00;18516;346;7504583;-36
2023/06/27 05:51:57;;;;;;;9.00;8.00;;;;;;;-128.00;-1.00;-1.00;18878;293;7504210;-36
2023/06/27 05:54:23;;;;;;;7.60;6.50;;;;;;;-128.00;-1.00;-1.00;18492;294;7505597;-33
2023/06/27 05:56:49;;;;;;;7.20;6.50;;;;;;;-128.00;-1.00;-1.00;18871;294;7504673;-33
2023/06/27 05:59:15;;;;;;;8.30;5.40;;;;;;;-128.00;-1.00;-1.00;18881;294;7504559;-34
2023/06/27 06:01:41;;;;;;;9.80;6.80;;;;;;;-128.00;-1.00;-1.00;18884;293;7504791;-34
2023/06/27 06:04:08;;;;;;;16.40;10.40;;;;;;;-128.00;-1.00;-1.00;18854;294;7504691;-36
2023/06/27 06:06:37;;;;;;;7.20;4.70;;;;;;;-128.00;-1.00;-1.00;18459;338;7504819;-34
2023/06/27 06:09:05;;;;;;;4.70;3.70;;;;;;;-128.00;-1.00;-1.00;18466;306;7504663;-37
2023/06/27 06:11:34;;;;;;;9.20;3.70;;;;;;;-128.00;-1.00;-1.00;18477;293;7505828;-37
2023/06/27 06:14:01;;;;;;;5.20;4.80;;;;;;;-128.00;-1.00;-1.00;18484;293;7504850;-36
2023/06/27 06:16:27;;;;;;;5.50;3.60;;;;;;;-128.00;-1.00;-1.00;18499;334;7504574;-32
2023/06/27 06:18:53;;;;;;;4.60;4.20;;;;;;;-128.00;-1.00;-1.00;18481;293;7506625;-36
2023/06/27 06:21:19;;;;;;;5.10;3.60;;;;;;;-128.00;-1.00;-1.00;18510;293;7504487;-37
2023/06/27 06:23:45;;;;;;;5.60;4.30;;;;;;;-128.00;-1.00;-1.00;18507;293;7505016;-37
2023/06/27 06:26:11;;;;;;;10.80;3.40;;;;;;;-128.00;-1.00;-1.00;18509;294;7506076;-32
2023/06/27 06:28:38;;;;;;;5.80;2.80;;;;;;;-128.00;-1.00;-1.00;18868;294;7505338;-32
2023/06/27 06:31:04;;;;;;;3.70;1.80;;;;;;;-128.00;-1.00;-1.00;18462;294;7506036;-35
2023/06/27 06:33:30;;;;;;;4.10;3.20;;;;;;;-128.00;-1.00;-1.00;18463;294;7505294;-32
2023/06/27 06:35:57;;;;;;;5.10;3.80;;;;;;;-128.00;-1.00;-1.00;18491;293;7505414;-32
2023/06/27 06:38:24;;;;;;;8.20;5.10;;;;;;;-128.00;-1.00;-1.00;18496;338;7504590;-33
2023/06/27 06:40:50;;;;;;;2.70;2.50;;;;;;;-128.00;-1.00;-1.00;18499;346;7504925;-33
2023/06/27 06:43:16;;;;;;;9.30;4.60;;;;;;;-128.00;-1.00;-1.00;18880;346;7504423;-33
2023/06/27 06:45:43;;;;;;;3.80;1.90;;;;;;;-128.00;-1.00;-1.00;18900;294;7504983;-37
2023/06/27 06:48:09;;;;;;;9.40;4.10;;;;;;;-128.00;-1.00;-1.00;18901;338;7504540;-36
2023/06/27 06:50:35;;;;;;;3.10;2.20;;;;;;;-128.00;-1.00;-1.00;18877;293;7505847;-33
2023/06/27 06:53:01;;;;;;;4.50;3.70;;;;;;;-128.00;-1.00;-1.00;18486;329;7504913;-32
2023/06/27 06:55:27;;;;;;;6.00;3.90;;;;;;;-128.00;-1.00;-1.00;18911;293;7504868;-33
2023/06/27 06:57:53;;;;;;;2.80;2.30;;;;;;;-128.00;-1.00;-1.00;18867;302;7504292;-32
2023/06/27 07:00:20;;;;;;;7.70;3.60;;;;;;;-128.00;-1.00;-1.00;18907;294;7504580;-36
2023/06/27 07:02:46;;;;;;;1.60;1.20;;;;;;;-128.00;-1.00;-1.00;18484;294;7505842;-33
2023/06/27 07:05:12;;;;;;;4.10;2.60;;;;;;;-128.00;-1.00;-1.00;18905;294;7504904;-37
2023/06/27 07:07:38;;;;;;;3.70;2.80;;;;;;;-128.00;-1.00;-1.00;18889;296;7504709;-36
2023/06/27 07:10:05;;;;;;;3.20;1.50;;;;;;;-128.00;-1.00;-1.00;18901;282;7505105;-33
2023/06/27 07:12:31;;;;;;;3.90;1.10;;;;;;;-128.00;-1.00;-1.00;18461;293;7504942;-33
2023/06/27 07:14:57;;;;;;;3.30;1.60;;;;;;;-128.00;-1.00;-1.00;18881;347;7504876;-33
2023/06/27 07:17:23;;;;;;;6.60;1.80;;;;;;;-128.00;-1.00;-1.00;18894;334;7506099;-35
2023/06/27 07:19:50;;;;;;;1.10;1.00;;;;;;;-128.00;-1.00;-1.00;18517;294;7504239;-36
2023/06/27 07:22:16;;;;;;;2.30;1.40;;;;;;;-128.00;-1.00;-1.00;18497;338;7504523;-32
2023/06/27 07:24:42;;;;;;;1.60;0.70;;;;;;;-128.00;-1.00;-1.00;18486;309;7504375;-35
2023/06/27 07:27:07;;;;;;;5.90;2.90;;;;;;;-128.00;-1.00;-1.00;18498;317;7504513;-36
2023/06/27 07:29:33;;;;;;;4.80;0.50;;;;;;;-128.00;-1.00;-1.00;18496;294;7504623;-36
2023/06/27 07:31:59;;;;;;;2.70;0.70;;;;;;;-128.00;-1.00;-1.00;18473;346;7506127;-35
2023/06/27 07:34:25;;;;;;;5.40;1.70;;;;;;;-128.00;-1.00;-1.00;18880;294;7504645;-32
2023/06/27 07:36:51;;;;;;;7.00;0.90;;;;;;;-128.00;-1.00;-1.00;18476;305;7504857;-32
2023/06/27 07:39:17;;;;;;;2.80;1.60;;;;;;;-128.00;-1.00;-1.00;18498;294;7506770;-36
2023/06/27 07:41:43;;;;;;;4.30;1.60;;;;;;;-128.00;-1.00;-1.00;18458;294;7504151;-37
2023/06/27 07:44:09;;;;;;;12.60;1.70;;;;;;;-128.00;-1.00;-1.00;18485;294;7506057;-36
2023/06/27 07:46:34;;;;;;;4.40;1.50;;;;;;;-128.00;-1.00;-1.00;18478;294;7504891;-36
2023/06/27 07:49:01;;;;;;;4.40;1.20;;;;;;;-128.00;-1.00;-1.00;18914;294;7504366;-37
2023/06/27 07:51:28;;;;;;;2.90;1.30;;;;;;;-128.00;-1.00;-1.00;18462;294;7504510;-36
2023/06/27 07:53:56;;;;;;;1.20;1.10;;;;;;;-128.00;-1.00;-1.00;18474;306;7507011;-35
2023/06/27 07:56:22;;;;;;;4.60;1.00;;;;;;;-128.00;-1.00;-1.00;18511;294;7504356;-35
2023/06/27 07:58:48;;;;;;;10.80;1.70;;;;;;;-128.00;-1.00;-1.00;18490;293;7504414;-35
2023/06/27 08:01:13;;;;;;;1.50;0.60;;;;;;;-128.00;-1.00;-1.00;18462;334;7506169;-32
2023/06/27 08:03:40;;;;;;;2.50;1.00;;;;;;;-128.00;-1.00;-1.00;18902;293;7505239;-33
2023/06/27 08:06:06;;;;;;;1.70;0.80;;;;;;;-128.00;-1.00;-1.00;18892;294;7504659;-36
2023/06/27 08:08:32;;;;;;;3.10;1.30;;;;;;;-128.00;-1.00;-1.00;18882;293;7504458;-34
2023/06/27 08:10:58;;;;;;;3.90;0.80;;;;;;;-128.00;-1.00;-1.00;18878;294;7504855;-33
2023/06/27 08:13:24;;;;;;;1.40;1.00;;;;;;;-128.00;-1.00;-1.00;18856;294;7504308;-36
2023/06/27 08:15:51;;;;;;;4.50;1.90;;;;;;;-128.00;-1.00;-1.00;18881;294;7504735;-32
2023/06/27 08:18:17;;;;;;;7.20;1.40;;;;;;;-128.00;-1.00;-1.00;18899;293;7504932;-36
2023/06/27 08:20:43;;;;;;;3.10;0.70;;;;;;;-128.00;-1.00;-1.00;18883;295;7504687;-38
2023/06/27 08:23:09;;;;;;;2.20;1.20;;;;;;;-128.00;-1.00;-1.00;18909;294;7504828;-36
2023/06/27 08:25:35;;;;;;;2.20;0.70;;;;;;;-128.00;-1.00;-1.00;18915;294;7505463;-36
2023/06/27 08:28:02;;;;;;;3.60;0.70;;;;;;;-128.00;-1.00;-1.00;18886;293;7504344;-36
2023/06/27 08:30:28;;;;;;;1.20;0.70;;;;;;;-128.00;-1.00;-1.00;18880;294;7504440;-35
2023/06/27 08:32:56;;;;;;;8.10;0.70;;;;;;;-128.00;-1.00;-1.00;18909;305;7504449;-33
2023/06/27 08:35:22;;;;;;;15.40;1.00;;;;;;;-128.00;-1.00;-1.00;18477;293;7504458;-32
2023/06/27 08:37:47;;;;;;;1.50;0.70;;;;;;;-128.00;-1.00;-1.00;18495;294;7506192;-35
2023/06/27 08:40:23;;;;;;;2.50;0.60;;;;;;;-128.00;-1.00;-1.00;18506;294;7504423;-35
2023/06/27 08:42:49;;;;;;;9.00;1.00;;;;;;;-128.00;-1.00;-1.00;18488;293;7504835;-32
2023/06/27 08:45:15;;;;;;;5.40;0.60;;;;;;;-128.00;-1.00;-1.00;18915;294;7504493;-36
2023/06/27 08:47:42;;;;;;;3.00;0.80;;;;;;;-128.00;-1.00;-1.00;18855;294;7504989;-32
2023/06/27 08:50:08;;;;;;;0.40;0.40;;;;;;;-128.00;-1.00;-1.00;18474;294;7505079;-35
2023/06/27 08:52:38;;;;;;;2.00;1.10;;;;;;;-128.00;-1.00;-1.00;18480;345;7504595;-32
2023/06/27 08:55:04;;;;;;;0.30;0.30;;;;;;;-128.00;-1.00;-1.00;18515;306;7504701;-31
2023/06/27 08:57:31;;;;;;;0.50;0.40;;;;;;;-128.00;-1.00;-1.00;18479;293;7506148;-32
2023/06/27 08:59:58;;;;;;;6.20;1.30;;;;;;;-128.00;-1.00;-1.00;18510;334;7504585;-35
2023/06/27 09:02:23;;;;;;;1.50;0.80;;;;;;;-128.00;-1.00;-1.00;18494;334;7504761;-35
2023/06/27 09:04:50;;;;;;;1.40;0.60;;;;;;;-128.00;-1.00;-1.00;18904;293;7504817;-34
2023/06/27 09:07:16;;;;;;;2.90;0.80;;;;;;;-128.00;-1.00;-1.00;18870;293;7504472;-36
2023/06/27 09:09:42;;;;;;;3.80;1.30;;;;;;;-128.00;-1.00;-1.00;18881;317;7504569;-33
2023/06/27 09:12:09;;;;;;;4.20;1.20;;;;;;;-128.00;-1.00;-1.00;18908;293;7504564;-35
2023/06/27 09:14:35;;;;;;;2.00;1.00;;;;;;;-128.00;-1.00;-1.00;18925;294;7505142;-36
2023/06/27 09:17:03;;;;;;;1.80;0.70;;;;;;;-128.00;-1.00;-1.00;18865;334;7505295;-32
2023/06/27 09:19:28;;;;;;;1.20;0.50;;;;;;;-128.00;-1.00;-1.00;18456;317;7506185;-35
2023/06/27 09:21:54;;;;;;;1.40;0.50;;;;;;;-128.00;-1.00;-1.00;18024;318;7505767;-32
2023/06/27 09:24:21;;;;;;;2.80;0.70;;;;;;;-128.00;-1.00;-1.00;18507;338;7505385;-35
2023/06/27 09:26:47;;;;;;;3.60;0.60;;;;;;;-128.00;-1.00;-1.00;18493;293;7505762;-36
2023/06/27 09:29:12;;;;;;;6.00;0.80;;;;;;;-128.00;-1.00;-1.00;18504;293;7506019;-36
2023/06/27 09:31:38;;;;;;;3.10;0.90;;;;;;;-128.00;-1.00;-1.00;18468;294;7504286;-35
2023/06/27 09:34:05;;;;;;;6.10;0.80;;;;;;;-128.00;-1.00;-1.00;18858;334;7504320;-32
2023/06/27 09:36:32;;;;;;;1.30;0.60;;;;;;;-128.00;-1.00;-1.00;18506;294;7504693;-31
2023/06/27 09:39:00;;;;;;;1.20;0.30;;;;;;;-128.00;-1.00;-1.00;18476;334;7504744;-35
2023/06/27 09:41:42;;;;;;;2.20;0.80;;;;;;;-128.00;-1.00;-1.00;18468;294;7506303;-33
2023/06/27 09:44:12;;;;;;;4.90;0.70;;;;;;;-128.00;-1.00;-1.00;18527;294;7506298;-37
2023/06/27 09:46:38;;;;;;;1.10;0.60;;;;;;;-128.00;-1.00;-1.00;18489;283;7506254;-36
2023/06/27 09:49:07;;;;;;;2.90;0.50;;;;;;;-128.00;-1.00;-1.00;18462;302;7505770;-36
2023/06/27 09:51:33;;;;;;;2.10;0.60;;;;;;;-128.00;-1.00;-1.00;18453;293;7504267;-36
2023/06/27 09:53:59;;;;;;;2.30;0.90;;;;;;;-128.00;-1.00;-1.00;18491;309;7504560;-37
2023/06/27 09:56:29;;;;;;;0.40;0.20;;;;;;;-128.00;-1.00;-1.00;18466;294;7506083;-33
2023/06/27 09:58:55;;;;;;;0.40;0.40;;;;;;;-128.00;-1.00;-1.00;18505;293;7504875;-37
2023/06/27 10:01:23;;;;;;;1.10;0.50;;;;;;;-128.00;-1.00;-1.00;18504;294;7504746;-32
2023/06/27 10:03:49;;;;;;;0.80;0.60;;;;;;;-128.00;-1.00;-1.00;18481;294;7505972;-32
2023/06/27 10:06:15;;;;;;;7.40;1.00;;;;;;;-128.00;-1.00;-1.00;18463;295;7506106;-36
2023/06/27 10:08:41;;;;;;;2.80;0.50;;;;;;;-128.00;-1.00;-1.00;18496;294;7504427;-32
2023/06/27 10:11:07;;;;;;;2.30;0.40;;;;;;;-128.00;-1.00;-1.00;18480;310;7505767;-35
2023/06/27 10:13:33;;;;;;;5.90;0.70;;;;;;;-128.00;-1.00;-1.00;18463;329;7504534;-35
2023/06/27 10:15:59;;;;;;;3.50;0.70;;;;;;;-128.00;-1.00;-1.00;18466;346;7506736;-36
2023/06/27 10:18:25;;;;;;;1.00;0.50;;;;;;;-128.00;-1.00;-1.00;18498;305;7504973;-32
2023/06/27 10:20:53;;;;;;;3.70;0.40;;;;;;;-128.00;-1.00;-1.00;18506;305;7505065;-35
2023/06/27 10:23:19;;;;;;;0.60;0.30;;;;;;;-128.00;-1.00;-1.00;18495;293;7505984;-36
2023/06/27 10:25:44;;;;;;;0.80;0.50;;;;;;;-128.00;-1.00;-1.00;18493;293;7505965;-32
2023/06/27 10:28:13;;;;;;;6.00;0.60;;;;;;;-128.00;-1.00;-1.00;18874;290;7505595;-31
2023/06/27 10:30:46;;;;;;;0.40;0.30;;;;;;;-128.00;-1.00;-1.00;18485;317;7504117;-35
2023/06/27 10:33:28;;;;;;;1.90;0.60;;;;;;;-128.00;-1.00;-1.00;18514;294;7504417;-35
2023/06/27 10:36:05;;;;;;;2.30;0.50;;;;;;;-128.00;-1.00;-1.00;18487;294;7504531;-36
2023/06/27 10:38:35;;;;;;;1.30;0.60;;;;;;;-128.00;-1.00;-1.00;18466;288;7506183;-35
2023/06/27 10:41:11;;;;;;;5.40;0.50;;;;;;;-128.00;-1.00;-1.00;18477;294;7506208;-33
2023/06/27 10:43:44;;;;;;;1.30;0.60;;;;;;;-128.00;-1.00;-1.00;18485;294;7504874;-32
2023/06/27 10:46:11;;;;;;;0.90;0.40;;;;;;;-128.00;-1.00;-1.00;18464;294;7505042;-32
2023/06/27 10:49:00;;;;;;;0.40;0.30;;;;;;;-128.00;-1.00;-1.00;18508;294;7505955;-35
2023/06/27 10:51:34;;;;;;;3.80;0.90;;;;;;;-128.00;-1.00;-1.00;18496;301;7504676;-32
2023/06/27 10:54:12;;;;;;;7.30;0.60;;;;;;;-128.00;-1.00;-1.00;18511;294;7504166;-36
2023/06/27 10:56:43;;;;;;;1.90;0.30;;;;;;;-128.00;-1.00;-1.00;18478;294;7504398;-35
2023/06/27 10:59:10;;;;;;;2.30;0.30;;;;;;;-128.00;-1.00;-1.00;18481;293;7507040;-35
2023/06/27 11:01:40;;;;;;;1.00;0.40;;;;;;;-128.00;-1.00;-1.00;18493;294;7504923;-31
2023/06/27 11:04:26;;;;;;;2.20;0.80;;;;;;;-128.00;-1.00;-1.00;18466;293;7506072;-31
2023/06/27 11:06:59;;;;;;;0.60;0.40;;;;;;;-128.00;-1.00;-1.00;18465;295;7506054;-31
2023/06/27 11:09:25;;;;;;;2.30;0.70;;;;;;;-128.00;-1.00;-1.00;18483;294;7506206;-35
2023/06/27 11:11:55;;;;;;;0.90;0.30;;;;;;;-128.00;-1.00;-1.00;18890;294;7504733;-35
2023/06/27 11:14:33;;;;;;;22.30;0.40;;;;;;;-128.00;-1.00;-1.00;18506;294;7504199;-31
2023/06/27 11:17:00;;;;;;;0.80;0.40;;;;;;;-128.00;-1.00;-1.00;18492;294;7504185;-32
2023/06/27 11:19:25;;;;;;;0.90;0.40;;;;;;;-128.00;-1.00;-1.00;18469;302;7504999;-35
2023/06/27 11:21:52;;;;;;;1.00;0.60;;;;;;;-128.00;-1.00;-1.00;18892;346;7504418;-32
2023/06/27 11:24:19;;;;;;;0.40;0.30;;;;;;;-128.00;-1.00;-1.00;18504;295;7506300;-35
2023/06/27 11:26:51;;;;;;;2.40;0.70;;;;;;;-128.00;-1.00;-1.00;18496;294;7506771;-35
2023/06/27 11:29:17;;;;;;;0.30;0.30;;;;;;;-128.00;-1.00;-1.00;18465;302;7504853;-32
2023/06/27 11:31:43;;;;;;;2.20;0.50;;;;;;;-128.00;-1.00;-1.00;18493;293;7505833;-35
2023/06/27 11:34:09;;;;;;;1.90;0.80;;;;;;;-128.00;-1.00;-1.00;18483;294;7504246;-35
2023/06/27 11:36:38;;;;;;;1.00;0.80;;;;;;;-128.00;-1.00;-1.00;18478;334;7504868;-32
2023/06/27 11:39:04;;;;;;;0.90;0.50;;;;;;;-128.00;-1.00;-1.00;18500;294;7504805;-35
2023/06/27 11:41:30;;;;;;;2.10;0.70;;;;;;;-128.00;-1.00;-1.00;18486;294;7504496;-36
2023/06/27 11:43:56;;;;;;;6.30;0.90;;;;;;;-128.00;-1.00;-1.00;18479;294;7504822;-35
2023/06/27 11:46:21;;;;;;;1.40;0.70;;;;;;;-128.00;-1.00;-1.00;18511;294;7505012;-32
2023/06/27 11:48:47;;;;;;;8.10;1.10;;;;;;;-128.00;-1.00;-1.00;18495;294;7506214;-35
2023/06/27 11:51:13;;;;;;;0.60;0.50;;;;;;;-128.00;-1.00;-1.00;18511;293;7506651;-35
2023/06/27 11:53:47;;;;;;;8.50;1.00;;;;;;;-128.00;-1.00;-1.00;18475;346;7504949;-35
2023/06/27 11:56:12;;;;;;;10.30;0.70;;;;;;;-128.00;-1.00;-1.00;18473;294;7504431;-35
2023/06/27 11:58:39;;;;;;;1.20;0.50;;;;;;;-128.00;-1.00;-1.00;18455;295;7506266;-35
2023/06/27 12:01:11;;;;;;;3.70;0.60;;;;;;;-128.00;-1.00;-1.00;18876;294;7504280;-36
2023/06/27 12:03:36;;;;;;;0.60;0.40;;;;;;;-128.00;-1.00;-1.00;18517;294;7504568;-36
2023/06/27 12:06:02;;;;;;;0.90;0.60;;;;;;;-128.00;-1.00;-1.00;18482;293;7505955;-35
2023/06/27 12:08:29;;;;;;;1.60;0.60;;;;;;;-128.00;-1.00;-1.00;18472;294;7506000;-35
2023/06/27 12:10:57;;;;;;;2.70;0.70;;;;;;;-128.00;-1.00;-1.00;18472;346;7506023;-32